createdAt,value
2023-04-01T00:01:59.196Z,98168.59
2023-04-01T00:04:25.777Z,98152.41
2023-04-01T00:06:52.206Z,98140.31
2023-04-01T00:09:18.963Z,98133.38
2023-04-01T00:11:45.302Z,98156.69
2023-04-01T00:14:12.362Z,98154.03
2023-04-01T00:16:38.850Z,98146.25
2023-04-01T00:19:05.301Z,98146.47
2023-04-01T00:21:31.793Z,98167.78
2023-04-01T00:23:58.254Z,98118.84
2023-04-01T00:26:24.656Z,98122.31
2023-04-01T00:28:51.144Z,98130.28
2023-04-01T00:31:17.792Z,98135.00
2023-04-01T00:33:44.297Z,98147.28
2023-04-01T00:36:19.579Z,98142.78
2023-04-01T00:38:46.529Z,98116.19
2023-04-01T00:41:14.114Z,98109.63
2023-04-01T00:43:41.570Z,98131.72
2023-04-01T00:46:08.030Z,98130.25
2023-04-01T00:48:37.583Z,98142.53
2023-04-01T00:51:16.709Z,98136.63
2023-04-01T00:53:47.959Z,98119.66
2023-04-01T00:56:37.688Z,98105.13
2023-04-01T00:59:19.862Z,98101.84
2023-04-01T01:01:46.275Z,98110.44
2023-04-01T01:04:28.631Z,98114.75
2023-04-01T01:07:31.520Z,98090.38
2023-04-01T01:10:16.436Z,98103.50
2023-04-01T01:12:51.948Z,98104.91
2023-04-01T01:15:30.764Z,98082.63
2023-04-01T01:18:30.889Z,98089.16
2023-04-01T01:21:31.386Z,98121.50
2023-04-01T01:24:18.145Z,98141.97
2023-04-01T01:27:02.119Z,98135.38
2023-04-01T01:29:53.531Z,98155.03
2023-04-01T01:32:35.219Z,98139.28
2023-04-01T01:35:21.001Z,98140.94
2023-04-01T01:37:50.611Z,98147.28
2023-04-01T01:40:18.206Z,98148.91
2023-04-01T01:42:49.353Z,98136.00
2023-04-01T01:45:19.343Z,98130.91
2023-04-01T01:47:46.916Z,98117.38
2023-04-01T01:50:15.030Z,98130.03
2023-04-01T01:52:41.370Z,98128.19
2023-04-01T01:55:29.531Z,98139.06
2023-04-01T01:58:00.197Z,98143.56
2023-04-01T02:00:27.279Z,98150.09
2023-04-01T02:02:54.921Z,98177.75
2023-04-01T02:05:27.139Z,98220.22
2023-04-01T02:08:12.933Z,98208.59
2023-04-01T02:10:44.392Z,98175.63
2023-04-01T02:13:19.691Z,98157.41
2023-04-01T02:15:49.702Z,98145.13
2023-04-01T02:18:18.357Z,98149.16
2023-04-01T02:20:45.769Z,98133.44
2023-04-01T02:23:13.846Z,98123.84
2023-04-01T02:25:42.458Z,98141.81
2023-04-01T02:28:11.555Z,98174.13
2023-04-01T02:30:40.368Z,98160.25
2023-04-01T02:33:07.413Z,98159.22
2023-04-01T02:35:37.224Z,98143.03
2023-04-01T02:38:04.394Z,98121.75
2023-04-01T02:40:30.758Z,98115.63
2023-04-01T02:42:57.229Z,98125.44
2023-04-01T02:45:23.735Z,98127.06
2023-04-01T02:47:50.543Z,98121.34
2023-04-01T02:50:17.042Z,98132.19
2023-04-01T02:52:43.547Z,98150.13
2023-04-01T02:55:10.125Z,98141.78
2023-04-01T02:57:36.535Z,98114.97
2023-04-01T03:00:04.034Z,98105.13
2023-04-01T03:02:30.542Z,98111.25
2023-04-01T03:04:56.929Z,98098.97
2023-04-01T03:07:24.732Z,98088.53
2023-04-01T03:09:51.142Z,98077.66
2023-04-01T03:12:17.617Z,98071.69
2023-04-01T03:14:43.954Z,98088.81
2023-04-01T03:17:10.313Z,98095.94
2023-04-01T03:19:37.013Z,98110.06
2023-04-01T03:22:03.510Z,98091.03
2023-04-01T03:24:29.935Z,98096.34
2023-04-01T03:26:56.269Z,98137.56
2023-04-01T03:29:22.616Z,98150.00
2023-04-01T03:31:48.972Z,98173.72
2023-04-01T03:34:15.590Z,98177.56
2023-04-01T03:36:42.040Z,98172.63
2023-04-01T03:39:08.589Z,98183.91
2023-04-01T03:41:37.511Z,98171.19
2023-04-01T03:44:04.224Z,98184.47
2023-04-01T03:46:31.181Z,98186.72
2023-04-01T03:48:57.737Z,98175.72
2023-04-01T03:51:24.091Z,98173.88
2023-04-01T03:53:50.604Z,98175.09
2023-04-01T03:56:17.042Z,98170.78
2023-04-01T03:58:43.515Z,98160.59
2023-04-01T04:01:20.494Z,98157.50
2023-04-01T04:03:47.174Z,98148.34
2023-04-01T04:06:14.831Z,98126.88
2023-04-01T04:08:41.410Z,98127.91
2023-04-01T04:11:08.199Z,98091.72
2023-04-01T04:13:35.361Z,98065.53
2023-04-01T04:16:01.822Z,98048.72
2023-04-01T04:18:28.242Z,98091.94
2023-04-01T04:20:54.737Z,98102.09
2023-04-01T04:23:21.380Z,98103.66
2023-04-01T04:26:03.992Z,98113.03
2023-04-01T04:28:30.610Z,98122.41
2023-04-01T04:30:57.451Z,98145.44
2023-04-01T04:33:24.941Z,98122.63
2023-04-01T04:35:52.622Z,98117.91
2023-04-01T04:38:19.110Z,98127.72
2023-04-01T04:40:45.619Z,98117.72
2023-04-01T04:43:14.044Z,98129.09
2023-04-01T04:45:40.896Z,98144.13
2023-04-01T04:48:11.492Z,98149.44
2023-04-01T04:50:37.857Z,98178.38
2023-04-01T04:53:04.238Z,98176.38
2023-04-01T04:55:30.815Z,98184.06
2023-04-01T04:57:57.599Z,98189.72
2023-04-01T05:00:25.771Z,98172.78
2023-04-01T05:02:52.393Z,98165.44
2023-04-01T05:05:18.845Z,98189.97
2023-04-01T05:07:45.347Z,98173.28
2023-04-01T05:10:12.019Z,98146.34
2023-04-01T05:12:38.483Z,98148.38
2023-04-01T05:15:06.441Z,98162.47
2023-04-01T05:17:32.921Z,98177.19
2023-04-01T05:19:59.349Z,98176.66
2023-04-01T05:22:26.243Z,98199.53
2023-04-01T05:24:52.640Z,98202.44
2023-04-01T05:27:18.965Z,98195.53
2023-04-01T05:29:45.369Z,98172.28
2023-04-01T05:32:11.772Z,98165.00
2023-04-01T05:34:38.156Z,98164.22
2023-04-01T05:37:04.575Z,98162.66
2023-04-01T05:39:31.165Z,98146.75
2023-04-01T05:41:57.645Z,98106.13
2023-04-01T05:44:23.989Z,98094.50
2023-04-01T05:46:50.486Z,98058.53
2023-04-01T05:49:17.010Z,98043.63
2023-04-01T05:51:43.477Z,98032.03
2023-04-01T05:54:09.947Z,98026.50
2023-04-01T05:56:36.327Z,98004.84
2023-04-01T05:59:02.937Z,98001.81
2023-04-01T06:01:29.301Z,97994.28
2023-04-01T06:03:56.036Z,97986.31
2023-04-01T06:06:30.340Z,97956.44
2023-04-01T06:08:58.485Z,97943.78
2023-04-01T06:11:55.895Z,97939.66
2023-04-01T06:14:43.593Z,97922.09
2023-04-01T06:17:28.014Z,97879.91
2023-04-01T06:20:17.620Z,97863.09
2023-04-01T06:23:15.112Z,97854.91
2023-04-01T06:25:41.623Z,97819.69
2023-04-01T06:28:38.586Z,97803.47
2023-04-01T06:31:23.176Z,97812.50
2023-04-01T06:34:06.436Z,97793.59
2023-04-01T06:36:51.377Z,97768.81
2023-04-01T06:39:17.813Z,97759.66
2023-04-01T06:41:58.496Z,97744.66
2023-04-01T06:44:47.368Z,97697.31
2023-04-01T06:47:24.407Z,97722.84
2023-04-01T06:50:09.708Z,97717.19
2023-04-01T06:52:54.837Z,97708.44
2023-04-01T06:55:45.458Z,97701.28
2023-04-01T06:58:36.770Z,97690.13
2023-04-01T07:01:07.119Z,97705.22
2023-04-01T07:03:36.377Z,97723.06
2023-04-01T07:06:06.583Z,97736.72
2023-04-01T07:08:37.576Z,97749.94
2023-04-01T07:11:07.001Z,97756.91
2023-04-01T07:13:50.192Z,97764.63
2023-04-01T07:16:24.966Z,97767.53
2023-04-01T07:18:59.547Z,97745.09
2023-04-01T07:21:41.174Z,97751.50
2023-04-01T07:24:15.283Z,97756.19
2023-04-01T07:26:41.657Z,97742.81
2023-04-01T07:29:14.002Z,97703.88
2023-04-01T07:31:57.835Z,97723.56
2023-04-01T07:34:27.820Z,97736.84
2023-04-01T07:37:11.900Z,97713.19
2023-04-01T07:39:42.653Z,97697.16
2023-04-01T07:42:48.096Z,97686.50
2023-04-01T07:45:17.636Z,97695.84
2023-04-01T07:48:09.768Z,97697.06
2023-04-01T07:50:54.332Z,97680.91
2023-04-01T07:53:37.227Z,97678.66
2023-04-01T07:56:15.475Z,97692.75
2023-04-01T07:59:00.686Z,97694.16
2023-04-01T08:02:11.458Z,97669.97
2023-04-01T08:04:37.920Z,97653.03
2023-04-01T08:07:10.632Z,97665.50
2023-04-01T08:09:52.499Z,97669.03
2023-04-01T08:12:51.640Z,97678.16
2023-04-01T08:15:27.115Z,97672.66
2023-04-01T08:18:15.344Z,97668.97
2023-04-01T08:20:52.043Z,97661.09
2023-04-01T08:23:25.132Z,97661.53
2023-04-01T08:26:08.204Z,97680.31
2023-04-01T08:28:42.761Z,97680.59
2023-04-01T08:31:33.518Z,97691.84
2023-04-01T08:34:04.762Z,97699.13
2023-04-01T08:36:37.065Z,97718.44
2023-04-01T08:39:27.291Z,97729.63
2023-04-01T08:42:18.131Z,97729.06
2023-04-01T08:45:18.601Z,97721.31
2023-04-01T08:48:05.851Z,97695.72
2023-04-01T08:50:39.732Z,97723.50
2023-04-01T08:53:28.471Z,97731.50
2023-04-01T08:56:34.512Z,97776.41
2023-04-01T08:59:25.412Z,97800.16
2023-04-01T09:02:12.327Z,97799.84
2023-04-01T09:05:03.910Z,97853.84
2023-04-01T09:07:44.884Z,97895.56
2023-04-01T09:10:26.442Z,97897.94
2023-04-01T09:12:58.818Z,97971.53
2023-04-01T09:15:37.696Z,97972.59
2023-04-01T09:18:46.481Z,97982.47
2023-04-01T09:21:50.554Z,98017.28
2023-04-01T09:24:31.990Z,97994.34
2023-04-01T09:27:09.479Z,98021.59
2023-04-01T09:29:55.469Z,98028.56
2023-04-01T09:32:40.515Z,97971.31
2023-04-01T09:35:28.542Z,97960.06
2023-04-01T09:38:13.259Z,97957.97
2023-04-01T09:40:55.053Z,97961.16
2023-04-01T09:43:33.758Z,97932.88
2023-04-01T09:46:18.862Z,97916.69
2023-04-01T09:49:23.185Z,97908.66
2023-04-01T09:52:15.062Z,97896.16
2023-04-01T09:55:03.447Z,97902.50
2023-04-01T09:58:11.584Z,97919.53
2023-04-01T10:00:56.879Z,97904.78
2023-04-01T10:03:41.736Z,97916.09
2023-04-01T10:06:36.061Z,97957.53
2023-04-01T10:09:23.667Z,97936.00
2023-04-01T10:11:59.599Z,97949.09
2023-04-01T10:14:39.789Z,97944.41
2023-04-01T10:17:40.678Z,97976.38
2023-04-01T10:20:45.946Z,97995.63
2023-04-01T10:23:40.783Z,97970.13
2023-04-01T10:26:28.814Z,97959.88
2023-04-01T10:29:15.035Z,97987.44
2023-04-01T10:31:57.127Z,98011.69
2023-04-01T10:34:38.705Z,98021.75
2023-04-01T10:37:21.641Z,98020.28
2023-04-01T10:40:06.662Z,98046.91
2023-04-01T10:42:51.582Z,97984.38
2023-04-01T10:45:55.392Z,97962.16
2023-04-01T10:48:56.642Z,97975.06
2023-04-01T10:52:02.334Z,97923.00
2023-04-01T10:55:20.121Z,97874.63
2023-04-01T10:58:38.178Z,97880.44
2023-04-01T11:01:29.918Z,97818.03
2023-04-01T11:04:34.115Z,97773.13
2023-04-01T11:07:31.475Z,97811.56
2023-04-01T11:10:23.591Z,97825.84
2023-04-01T11:13:20.126Z,97819.31
2023-04-01T11:16:28.184Z,97828.72
2023-04-01T11:18:58.260Z,97808.16
2023-04-01T11:22:03.631Z,97824.69
2023-04-01T11:24:44.183Z,97822.28
2023-04-01T11:27:57.619Z,97836.31
2023-04-01T11:30:37.788Z,97791.56
2023-04-01T11:33:24.683Z,97777.56
2023-04-01T11:36:22.024Z,97788.25
2023-04-01T11:38:57.785Z,97770.88
2023-04-01T11:41:41.612Z,97777.69
2023-04-01T11:44:17.008Z,97731.41
2023-04-01T11:47:04.771Z,97739.41
2023-04-01T11:49:37.576Z,97754.41
2023-04-01T11:52:19.182Z,97738.47
2023-04-01T11:54:56.321Z,97715.63
2023-04-01T11:57:41.586Z,97765.88
2023-04-01T12:00:36.394Z,97754.81
2023-04-01T12:03:29.903Z,97722.97
2023-04-01T12:06:03.507Z,97751.03
2023-04-01T12:08:32.820Z,97745.31
2023-04-01T12:11:05.261Z,97747.53
2023-04-01T12:13:58.291Z,97738.47
2023-04-01T12:16:47.618Z,97721.19
2023-04-01T12:19:51.368Z,97760.78
2023-04-01T12:22:33.922Z,97765.50
2023-04-01T12:25:22.331Z,97756.69
2023-04-01T12:28:12.117Z,97740.47
2023-04-01T12:30:47.468Z,97737.66
2023-04-01T12:33:45.567Z,97703.09
2023-04-01T12:36:27.454Z,97721.25
2023-04-01T12:39:27.584Z,97720.00
2023-04-01T12:42:24.314Z,97747.91
2023-04-01T12:45:24.710Z,97738.19
2023-04-01T12:48:13.477Z,97725.88
2023-04-01T12:51:25.085Z,97726.53
2023-04-01T12:54:08.139Z,97747.84
2023-04-01T12:57:10.224Z,97734.41
2023-04-01T12:59:49.053Z,97708.75
2023-04-01T13:02:39.228Z,97724.94
2023-04-01T13:05:50.369Z,97734.16
2023-04-01T13:08:25.564Z,97707.00
2023-04-01T13:10:59.380Z,97693.31
2023-04-01T13:14:00.461Z,97700.84
2023-04-01T13:16:30.896Z,97692.31
2023-04-01T13:19:14.662Z,97696.97
2023-04-01T13:21:53.540Z,97709.91
2023-04-01T13:24:44.723Z,97699.91
2023-04-01T13:27:13.974Z,97710.66
2023-04-01T13:30:04.810Z,97671.00
2023-04-01T13:32:51.393Z,97694.41
2023-04-01T13:35:33.186Z,97696.69
2023-04-01T13:38:36.266Z,97708.59
2023-04-01T13:41:18.776Z,97699.75
2023-04-01T13:43:56.408Z,97689.00
2023-04-01T13:46:57.983Z,97668.84
2023-04-01T13:49:35.531Z,97677.41
2023-04-01T13:52:18.737Z,97680.94
2023-04-01T13:55:03.632Z,97662.34
2023-04-01T13:57:40.884Z,97678.28
2023-04-01T14:00:20.624Z,97664.56
2023-04-01T14:02:59.386Z,97662.34
2023-04-01T14:05:50.532Z,97674.91
2023-04-01T14:08:32.074Z,97681.00
2023-04-01T14:11:18.174Z,97669.19
2023-04-01T14:14:06.516Z,97663.75
2023-04-01T14:17:01.811Z,97661.06
2023-04-01T14:19:51.173Z,97657.50
2023-04-01T14:22:23.905Z,97658.41
2023-04-01T14:25:27.571Z,97666.44
2023-04-01T14:28:20.135Z,97660.84
2023-04-01T14:31:24.257Z,97651.31
2023-04-01T14:34:23.053Z,97651.44
2023-04-01T14:37:16.704Z,97668.09
2023-04-01T14:40:14.533Z,97669.25
2023-04-01T14:43:10.201Z,97676.75
2023-04-01T14:46:03.925Z,97682.66
2023-04-01T14:48:38.814Z,97699.16
2023-04-01T14:51:37.325Z,97708.81
2023-04-01T14:54:14.570Z,97712.84
2023-04-01T14:56:49.295Z,97744.78
2023-04-01T14:59:27.667Z,97760.19
2023-04-01T15:02:04.119Z,97763.91
2023-04-01T15:04:50.614Z,97767.03
2023-04-01T15:07:56.229Z,97786.09
2023-04-01T15:10:48.657Z,97792.50
2023-04-01T15:13:40.373Z,97759.22
2023-04-01T15:16:20.244Z,97747.06
2023-04-01T15:19:07.692Z,97738.31
2023-04-01T15:21:57.135Z,97724.56
2023-04-01T15:24:28.008Z,97725.22
2023-04-01T15:27:03.236Z,97723.59
2023-04-01T15:29:42.463Z,97719.28
2023-04-01T15:32:27.134Z,97721.13
2023-04-01T15:35:21.486Z,97728.38
2023-04-01T15:37:59.834Z,97743.44
2023-04-01T15:40:38.772Z,97751.69
2023-04-01T15:43:14.081Z,97760.13
2023-04-01T15:45:49.890Z,97764.41
2023-04-01T15:48:32.537Z,97786.91
2023-04-01T15:51:12.668Z,97773.53
2023-04-01T15:53:49.145Z,97781.94
2023-04-01T15:56:30.579Z,97787.47
2023-04-01T15:59:10.738Z,97785.63
2023-04-01T16:02:00.306Z,97779.03
2023-04-01T16:04:51.712Z,97795.47
2023-04-01T16:07:27.458Z,97816.69
2023-04-01T16:10:09.909Z,97828.19
2023-04-01T16:12:45.170Z,97836.41
2023-04-01T16:15:34.643Z,97876.06
2023-04-01T16:18:07.555Z,97862.09
2023-04-01T16:21:00.364Z,97865.63
2023-04-01T16:23:48.153Z,97898.06
2023-04-01T16:26:26.890Z,97886.56
2023-04-01T16:29:09.403Z,97893.31
2023-04-01T16:32:02.641Z,97900.13
2023-04-01T16:34:42.751Z,97910.59
2023-04-01T16:37:20.160Z,97925.63
2023-04-01T16:40:01.601Z,97935.25
2023-04-01T16:42:49.890Z,97945.56
2023-04-01T16:45:26.422Z,97965.88
2023-04-01T16:48:13.585Z,97944.94
2023-04-01T16:50:55.014Z,97945.16
2023-04-01T16:53:35.783Z,97961.38
2023-04-01T16:56:02.390Z,97965.53
2023-04-01T16:59:07.110Z,97970.84
2023-04-01T17:01:48.962Z,97978.06
2023-04-01T17:04:28.137Z,97984.63
2023-04-01T17:07:16.166Z,98004.13
2023-04-01T17:10:26.271Z,98020.34
2023-04-01T17:13:24.894Z,98017.69
2023-04-01T17:15:51.276Z,98033.28
2023-04-01T17:18:29.822Z,98039.25
2023-04-01T17:21:06.505Z,98035.78
2023-04-01T17:23:43.900Z,98041.53
2023-04-01T17:26:38.563Z,98059.59
2023-04-01T17:29:32.837Z,98062.66
2023-04-01T17:32:12.683Z,98043.78
2023-04-01T17:34:48.159Z,98042.53
2023-04-01T17:37:36.612Z,98044.19
2023-04-01T17:40:33.368Z,98037.22
2023-04-01T17:43:08.739Z,98039.06
2023-04-01T17:45:50.944Z,98040.94
2023-04-01T17:48:28.729Z,98057.59
2023-04-01T17:51:22.621Z,98045.25
2023-04-01T17:54:22.624Z,98037.50
2023-04-01T17:57:10.263Z,98035.03
2023-04-01T17:59:41.436Z,98027.84
2023-04-01T18:02:14.441Z,98006.06
2023-04-01T18:05:20.380Z,97986.16
2023-04-01T18:07:50.175Z,97972.59
2023-04-01T18:11:10.286Z,97968.50
2023-04-01T18:13:49.313Z,97973.84
2023-04-01T18:16:35.090Z,98002.97
2023-04-01T18:19:13.529Z,98000.13
2023-04-01T18:21:55.474Z,98005.88
2023-04-01T18:24:43.900Z,98040.16
2023-04-01T18:27:10.293Z,98043.63
2023-04-01T18:29:55.119Z,98046.31
2023-04-01T18:32:35.867Z,98054.31
2023-04-01T18:35:24.081Z,98064.56
2023-04-01T18:37:55.533Z,98106.41
2023-04-01T18:40:30.019Z,98120.16
2023-04-01T18:43:10.154Z,98177.41
2023-04-01T18:45:42.691Z,98210.63
2023-04-01T18:48:48.590Z,98239.97
2023-04-01T18:51:21.592Z,98279.75
2023-04-01T18:54:07.062Z,98299.41
2023-04-01T18:56:38.625Z,98229.91
2023-04-01T18:59:20.499Z,98200.41
2023-04-01T19:02:20.523Z,98208.78
2023-04-01T19:05:19.615Z,98231.94
2023-04-01T19:07:54.507Z,98238.28
2023-04-01T19:10:38.431Z,98226.19
2023-04-01T19:13:27.897Z,98247.28
2023-04-01T19:16:20.242Z,98175.75
2023-04-01T19:18:56.722Z,98138.44
2023-04-01T19:21:54.313Z,98166.28
2023-04-01T19:24:36.369Z,98165.06
2023-04-01T19:27:07.033Z,98190.47
2023-04-01T19:29:59.374Z,98215.78
2023-04-01T19:32:41.519Z,98238.25
2023-04-01T19:35:33.138Z,98265.69
2023-04-01T19:38:39.958Z,98285.50
2023-04-01T19:41:45.522Z,98294.13
2023-04-01T19:44:27.159Z,98313.81
2023-04-01T19:47:03.800Z,98306.63
2023-04-01T19:49:48.554Z,98302.31
2023-04-01T19:52:17.934Z,98309.47
2023-04-01T19:55:11.125Z,98332.00
2023-04-01T19:57:52.969Z,98327.88
2023-04-01T20:00:30.739Z,98321.13
2023-04-01T20:03:02.893Z,98320.28
2023-04-01T20:05:49.938Z,98325.19
2023-04-01T20:08:21.280Z,98316.56
2023-04-01T20:11:06.417Z,98329.47
2023-04-01T20:13:46.273Z,98346.09
2023-04-01T20:16:14.242Z,98350.97
2023-04-01T20:18:58.460Z,98355.47
2023-04-01T20:21:42.121Z,98368.78
2023-04-01T20:24:14.893Z,98375.94
2023-04-01T20:26:54.651Z,98390.44
2023-04-01T20:29:39.891Z,98392.13
2023-04-01T20:32:20.445Z,98430.56
2023-04-01T20:35:26.906Z,98467.50
2023-04-01T20:38:18.413Z,98503.69
2023-04-01T20:40:58.516Z,98517.94
2023-04-01T20:43:49.329Z,98537.16
2023-04-01T20:46:18.585Z,98535.34
2023-04-01T20:48:47.774Z,98546.81
2023-04-01T20:51:23.480Z,98549.28
2023-04-01T20:53:51.810Z,98530.28
2023-04-01T20:56:45.871Z,98530.72
2023-04-01T20:59:41.266Z,98526.44
2023-04-01T21:02:29.504Z,98524.59
2023-04-01T21:05:30.038Z,98529.72
2023-04-01T21:08:21.283Z,98544.84
2023-04-01T21:11:19.324Z,98556.72
2023-04-01T21:14:02.930Z,98564.69
2023-04-01T21:16:48.362Z,98576.31
2023-04-01T21:20:01.690Z,98575.72
2023-04-01T21:22:43.361Z,98588.56
2023-04-01T21:25:27.470Z,98604.53
2023-04-01T21:28:36.708Z,98634.97
2023-04-01T21:31:24.368Z,98650.56
2023-04-01T21:34:13.557Z,98685.53
2023-04-01T21:37:00.222Z,98695.53
2023-04-01T21:39:57.840Z,98699.56
2023-04-01T21:42:42.523Z,98720.91
2023-04-01T21:45:26.861Z,98746.41
2023-04-01T21:48:22.670Z,98763.28
2023-04-01T21:51:09.103Z,98787.09
2023-04-01T21:53:54.197Z,98812.88
2023-04-01T21:56:42.098Z,98829.81
2023-04-01T21:59:30.569Z,98797.84
2023-04-01T22:02:12.219Z,98767.50
2023-04-01T22:04:57.530Z,98724.03
2023-04-01T22:07:41.548Z,98722.19
2023-04-01T22:10:44.072Z,98700.38
2023-04-01T22:13:19.479Z,98691.22
2023-04-01T22:15:48.857Z,98684.06
2023-04-01T22:18:26.473Z,98682.06
2023-04-01T22:21:09.071Z,98679.38
2023-04-01T22:23:48.267Z,98665.72
2023-04-01T22:26:32.833Z,98681.03
2023-04-01T22:29:13.411Z,98707.81
2023-04-01T22:31:50.452Z,98704.16
2023-04-01T22:34:56.003Z,98705.50
2023-04-01T22:37:57.982Z,98701.56
2023-04-01T22:40:33.182Z,98713.41
2023-04-01T22:43:16.588Z,98726.91
2023-04-01T22:45:48.852Z,98705.97
2023-04-01T22:48:24.390Z,98705.97
2023-04-01T22:51:11.733Z,98698.00
2023-04-01T22:53:50.655Z,98683.31
2023-04-01T22:56:23.690Z,98676.00
2023-04-01T22:59:09.685Z,98698.25
2023-04-01T23:01:52.079Z,98702.75
2023-04-01T23:04:25.610Z,98726.91
2023-04-01T23:06:58.483Z,98740.00
2023-04-01T23:09:28.637Z,98743.47
2023-04-01T23:12:15.065Z,98755.50
2023-04-01T23:14:48.575Z,98752.69
2023-04-01T23:17:52.609Z,98743.22
2023-04-01T23:20:41.031Z,98752.03
2023-04-01T23:23:16.283Z,98742.41
2023-04-01T23:25:45.795Z,98708.63
2023-04-01T23:28:20.469Z,98690.66
2023-04-01T23:30:49.251Z,98680.00
2023-04-01T23:33:31.944Z,98689.00
2023-04-01T23:36:00.326Z,98711.31
2023-04-01T23:38:27.309Z,98688.84
2023-04-01T23:40:55.952Z,98672.50
2023-04-01T23:43:27.464Z,98663.06
2023-04-01T23:45:56.748Z,98655.25
2023-04-01T23:48:31.690Z,98656.81
2023-04-01T23:50:59.482Z,98654.16
2023-04-01T23:53:30.299Z,98668.38
2023-04-01T23:55:57.321Z,98666.91
2023-04-01T23:58:26.959Z,98685.41
